Atlanta, New York
Current Conditions -  °F | °C
As of 4:54 AM on Saturday 25 Oct 2014 (Local Time) from KDSV Reporting Station
Overcast Overcast  
Wind Chill: 43°   Ceiling: 6000
Heat Index: 46°   Visibility: 10mi
Dew Point: 41°   Wind: 6mph
Humidity: 83%   Direction: 150°SSE
Pressure: 29.9"   Gusts: NA
Location:  42.55°N, 77.47°W
Report Text: KDSV 250854Z AUTO 15005KT 10SM FEW041 OVC060 08/05 A2990 RMK AO2 SLP133 T00780050 57013
Loading
Personal Weather Stations






























Interactive Weather Map
Tropical Storm Tracking
New forecast layout! Learn more

10-Day Weather Forecast

Advertisements
Track Severe Weather on mobile